createdAt,value
2024-03-12T00:00:59.573Z,-11.97
2024-03-12T00:01:59.512Z,-11.65
2024-03-12T00:02:59.570Z,-11.33
2024-03-12T00:03:59.721Z,-10.68
2024-03-12T00:04:59.757Z,-11.33
2024-03-12T00:05:59.825Z,-11.33
2024-03-12T00:06:59.917Z,-10.68
2024-03-12T00:07:59.991Z,-10.68
2024-03-12T00:09:00.032Z,-11.33
2024-03-12T00:10:00.183Z,-11.65
2024-03-12T00:11:00.265Z,-11.97
2024-03-12T00:12:00.317Z,-11.01
2024-03-12T00:13:00.418Z,-11.65
2024-03-12T00:14:00.449Z,-10.68
2024-03-12T00:15:00.558Z,-11.01
2024-03-12T00:16:00.703Z,-12.94
2024-03-12T00:17:00.722Z,-11.65
2024-03-12T00:18:00.837Z,-11.01
2024-03-12T00:19:00.914Z,-11.01
2024-03-12T00:20:00.966Z,-11.01
2024-03-12T00:21:01.040Z,-11.65
2024-03-12T00:22:01.204Z,-11.01
2024-03-12T00:23:01.248Z,-11.33
2024-03-12T00:24:01.316Z,-10.36
2024-03-12T00:25:01.466Z,-11.97
2024-03-12T00:26:01.500Z,-11.97
2024-03-12T00:27:01.597Z,-11.01
2024-03-12T00:28:01.679Z,-11.97
2024-03-12T00:29:01.705Z,-11.97
2024-03-12T00:30:01.821Z,-10.68
2024-03-12T00:31:02.050Z,-11.01
2024-03-12T00:32:01.976Z,-11.01
2024-03-12T00:33:02.131Z,-11.97
2024-03-12T00:34:02.227Z,-11.33
2024-03-12T00:35:02.219Z,-11.65
2024-03-12T00:36:02.300Z,-11.65
2024-03-12T00:37:02.441Z,-11.65
2024-03-12T00:38:02.552Z,-10.68
2024-03-12T00:39:02.573Z,-11.33
2024-03-12T00:40:02.787Z,-11.65
2024-03-12T00:41:02.780Z,-11.01
2024-03-12T00:42:02.832Z,-11.65
2024-03-12T00:43:02.961Z,-11.01
2024-03-12T00:44:03.026Z,-11.97
2024-03-12T00:45:03.122Z,-11.65
2024-03-12T00:46:03.242Z,-10.04
2024-03-12T00:47:03.267Z,-11.01
2024-03-12T00:48:03.367Z,-11.33
2024-03-12T00:49:03.485Z,-12.94
2024-03-12T00:50:03.519Z,-11.01
2024-03-12T00:51:03.583Z,-11.33
2024-03-12T00:52:03.718Z,-12.29
2024-03-12T00:53:03.743Z,-12.29
2024-03-12T00:54:03.901Z,-11.33
2024-03-12T00:55:03.983Z,-11.65
2024-03-12T00:56:04.014Z,-11.65
2024-03-12T00:57:04.125Z,-12.62
2024-03-12T00:58:04.269Z,-12.29
2024-03-12T00:59:04.282Z,-11.97
2024-03-12T01:00:04.349Z,-12.29
2024-03-12T01:01:04.514Z,-11.97
2024-03-12T01:02:04.526Z,-11.33
2024-03-12T01:03:04.586Z,-12.62
2024-03-12T01:04:04.722Z,-11.65
2024-03-12T01:05:04.733Z,-11.97
2024-03-12T01:06:04.892Z,-12.29
2024-03-12T01:07:05.023Z,-11.33
2024-03-12T01:08:05.066Z,-12.29
2024-03-12T01:09:05.095Z,-12.29
2024-03-12T01:10:05.209Z,-11.65
2024-03-12T01:11:05.326Z,-11.97
2024-03-12T01:12:05.371Z,-11.33
2024-03-12T01:13:05.584Z,-12.29
2024-03-12T01:14:05.547Z,-12.62
2024-03-12T01:15:05.603Z,-10.68
2024-03-12T01:16:05.805Z,-11.65
2024-03-12T01:17:05.826Z,-11.97
2024-03-12T01:18:05.955Z,-11.33
2024-03-12T01:19:06.021Z,-12.62
2024-03-12T01:20:06.065Z,-11.65
2024-03-12T01:21:06.158Z,-12.29
2024-03-12T01:22:06.383Z,-12.62
2024-03-12T01:23:07.255Z,-11.97
2024-03-12T01:24:06.420Z,-12.29
2024-03-12T01:25:06.514Z,-11.97
2024-03-12T01:26:06.553Z,-12.94
2024-03-12T01:27:06.642Z,-12.29
2024-03-12T01:28:08.423Z,-12.62
2024-03-12T01:29:06.766Z,-12.62
2024-03-12T01:30:06.835Z,-12.29
2024-03-12T01:31:06.982Z,-12.29
2024-03-12T01:32:07.060Z,-12.29
2024-03-12T01:33:07.844Z,-11.97
2024-03-12T01:34:07.264Z,-12.94
2024-03-12T01:35:07.344Z,-11.33
2024-03-12T01:36:07.447Z,-12.62
2024-03-12T01:37:07.743Z,-12.29
2024-03-12T01:38:07.602Z,-12.29
2024-03-12T01:39:07.608Z,-12.29
2024-03-12T01:40:07.792Z,-11.97
2024-03-12T01:41:07.766Z,-12.62
2024-03-12T01:42:07.842Z,-12.29
2024-03-12T01:43:08.695Z,-12.29
2024-03-12T01:44:08.090Z,-12.29
2024-03-12T01:45:08.136Z,-12.62
2024-03-12T01:46:08.281Z,-13.91
2024-03-12T01:47:08.290Z,-12.62
2024-03-12T01:48:09.293Z,-12.62
2024-03-12T01:49:08.526Z,-13.91
2024-03-12T01:50:08.585Z,-13.26
2024-03-12T01:51:08.660Z,-11.33
2024-03-12T01:52:08.757Z,-13.91
2024-03-12T01:53:09.697Z,-12.94
2024-03-12T01:54:08.949Z,-11.65
2024-03-12T01:55:09.086Z,-11.97
2024-03-12T01:56:09.150Z,-13.26
2024-03-12T01:57:09.172Z,-12.62
2024-03-12T01:58:09.254Z,-12.62
2024-03-12T01:59:09.306Z,-12.94
2024-03-12T02:00:09.396Z,-12.62
2024-03-12T02:01:09.577Z,-12.62
2024-03-12T02:02:09.588Z,-11.97
2024-03-12T02:03:09.669Z,-12.62
2024-03-12T02:04:09.829Z,-11.33
2024-03-12T02:05:09.840Z,-12.29
2024-03-12T02:06:10.001Z,-12.94
2024-03-12T02:07:10.036Z,-12.62
2024-03-12T02:08:10.088Z,-12.94
2024-03-12T02:09:10.188Z,-11.97
2024-03-12T02:10:10.303Z,-12.29
2024-03-12T02:11:10.385Z,-11.65
2024-03-12T02:12:10.380Z,-12.94
2024-03-12T02:13:10.580Z,-12.29
2024-03-12T02:14:10.568Z,-11.65
2024-03-12T02:15:10.687Z,-12.62
2024-03-12T02:16:10.883Z,-13.26
2024-03-12T02:17:10.909Z,-13.26
2024-03-12T02:18:10.968Z,-13.58
2024-03-12T02:19:11.035Z,-13.26
2024-03-12T02:20:11.076Z,-12.29
2024-03-12T02:21:11.156Z,-11.97
2024-03-12T02:22:11.367Z,-11.97
2024-03-12T02:23:11.358Z,-12.29
2024-03-12T02:24:11.429Z,-12.62
2024-03-12T02:25:11.864Z,-11.65
2024-03-12T02:26:11.609Z,-12.62
2024-03-12T02:27:11.747Z,-13.26
2024-03-12T02:28:11.801Z,-11.65
2024-03-12T02:29:11.865Z,-12.62
2024-03-12T02:30:12.101Z,-13.58
2024-03-12T02:31:12.076Z,-12.62
2024-03-12T02:32:12.148Z,-11.97
2024-03-12T02:33:12.263Z,-12.94
2024-03-12T02:34:12.289Z,-11.97
2024-03-12T02:35:12.379Z,-11.97
2024-03-12T02:36:12.396Z,-12.94
2024-03-12T02:37:12.562Z,-12.62
2024-03-12T02:38:12.653Z,-12.62
2024-03-12T02:39:12.667Z,-12.94
2024-03-12T02:40:12.818Z,-12.94
2024-03-12T02:41:12.797Z,-12.29
2024-03-12T02:42:12.846Z,-12.94
2024-03-12T02:43:13.032Z,-13.58
2024-03-12T02:44:13.041Z,-12.94
2024-03-12T02:45:13.162Z,-12.62
2024-03-12T02:46:13.225Z,-12.29
2024-03-12T02:47:13.276Z,-11.97
2024-03-12T02:48:13.362Z,-12.94
2024-03-12T02:49:13.449Z,-12.29
2024-03-12T02:50:13.553Z,-12.94
2024-03-12T02:51:13.612Z,-12.29
2024-03-12T02:52:13.724Z,-11.65
2024-03-12T02:53:13.728Z,-12.94
2024-03-12T02:54:13.802Z,-12.29
2024-03-12T02:55:14.052Z,-12.62
2024-03-12T02:56:14.022Z,-13.26
2024-03-12T02:57:14.053Z,-12.94
2024-03-12T02:58:14.157Z,-13.26
2024-03-12T02:59:14.270Z,-12.62
2024-03-12T03:00:15.709Z,-13.91
2024-03-12T03:01:14.454Z,-11.65
2024-03-12T03:02:14.511Z,-11.33
2024-03-12T03:03:14.592Z,-12.62
2024-03-12T03:04:14.631Z,-13.26
2024-03-12T03:05:14.853Z,-13.26
2024-03-12T03:06:14.846Z,-12.29
2024-03-12T03:07:14.952Z,-12.94
2024-03-12T03:08:14.969Z,-12.62
2024-03-12T03:09:15.077Z,-12.62
2024-03-12T03:10:15.319Z,-13.26
2024-03-12T03:11:15.316Z,-12.62
2024-03-12T03:12:15.380Z,-12.29
2024-03-12T03:13:15.526Z,-12.94
2024-03-12T03:14:15.506Z,-12.94
2024-03-12T03:15:15.597Z,-12.29
2024-03-12T03:16:15.658Z,-12.29
2024-03-12T03:17:15.788Z,-12.62
2024-03-12T03:18:15.870Z,-12.29
2024-03-12T03:19:16.043Z,-12.62
2024-03-12T03:20:16.353Z,-11.97
2024-03-12T03:21:16.148Z,-11.01
2024-03-12T03:22:16.321Z,-12.29
2024-03-12T03:23:16.299Z,-12.62
2024-03-12T03:24:16.354Z,-12.29
2024-03-12T03:25:16.659Z,-12.62
2024-03-12T03:26:16.549Z,-12.62
2024-03-12T03:27:16.697Z,-11.65
2024-03-12T03:28:16.729Z,-12.62
2024-03-12T03:29:16.841Z,-12.62
2024-03-12T03:30:16.845Z,-11.97
2024-03-12T03:31:16.968Z,-11.97
2024-03-12T03:32:17.001Z,-12.94
2024-03-12T03:33:17.166Z,-11.97
2024-03-12T03:34:17.333Z,-11.33
2024-03-12T03:35:17.276Z,-12.94
2024-03-12T03:36:17.369Z,-13.58
2024-03-12T03:37:17.544Z,-11.65
2024-03-12T03:38:17.576Z,-12.29
2024-03-12T03:39:17.618Z,-12.29
2024-03-12T03:40:17.780Z,-11.33
2024-03-12T03:41:17.800Z,-11.97
2024-03-12T03:42:17.890Z,-12.62
2024-03-12T03:43:18.047Z,-11.65
2024-03-12T03:44:18.071Z,-12.62
2024-03-12T03:45:18.137Z,-12.94
2024-03-12T03:46:18.229Z,-13.26
2024-03-12T03:47:18.313Z,-11.65
2024-03-12T03:48:18.423Z,-12.62
2024-03-12T03:49:18.470Z,-12.94
2024-03-12T03:50:18.573Z,-14.23
2024-03-12T03:51:18.669Z,-12.29
2024-03-12T03:52:18.786Z,-11.97
2024-03-12T03:53:18.846Z,-12.29
2024-03-12T03:54:18.954Z,-12.94
2024-03-12T03:55:19.071Z,-13.58
2024-03-12T03:56:19.090Z,-11.65
2024-03-12T03:57:19.224Z,-11.65
2024-03-12T03:58:19.411Z,-11.33
2024-03-12T03:59:19.339Z,-11.33
2024-03-12T04:00:19.427Z,-13.26
2024-03-12T04:01:19.631Z,-11.97
2024-03-12T04:02:19.632Z,-13.26
2024-03-12T04:03:19.654Z,-12.62
2024-03-12T04:04:19.759Z,-11.97
2024-03-12T04:05:19.891Z,-12.94
2024-03-12T04:06:19.936Z,-12.29
2024-03-12T04:07:20.070Z,-12.29
2024-03-12T04:08:20.129Z,-12.62
2024-03-12T04:09:20.664Z,-13.58
2024-03-12T04:10:20.315Z,-12.29
2024-03-12T04:11:20.380Z,-11.65
2024-03-12T04:12:20.449Z,-13.26
2024-03-12T04:13:20.548Z,-12.29
2024-03-12T04:14:20.667Z,-12.29
2024-03-12T04:15:20.769Z,-11.65
2024-03-12T04:16:20.819Z,-12.94
2024-03-12T04:17:20.929Z,-11.65
2024-03-12T04:18:21.013Z,-13.58
2024-03-12T04:19:21.153Z,-13.26
2024-03-12T04:20:21.179Z,-12.29
2024-03-12T04:21:21.217Z,-12.62
2024-03-12T04:22:21.326Z,-12.94
2024-03-12T04:23:21.398Z,-11.65
2024-03-12T04:24:21.496Z,-12.62
2024-03-12T04:25:21.576Z,-12.94
2024-03-12T04:26:21.660Z,-11.65
2024-03-12T04:27:21.712Z,-11.65
2024-03-12T04:28:21.813Z,-11.65
2024-03-12T04:29:21.883Z,-11.33
2024-03-12T04:30:22.005Z,-11.97
2024-03-12T04:31:22.310Z,-12.29
2024-03-12T04:32:22.150Z,-13.26
2024-03-12T04:33:22.191Z,-11.97
2024-03-12T04:34:22.282Z,-12.62
2024-03-12T04:35:22.378Z,-12.62
2024-03-12T04:36:22.470Z,-13.58
2024-03-12T04:37:22.569Z,-12.62
2024-03-12T04:38:22.663Z,-13.26
2024-03-12T04:39:22.733Z,-11.97
2024-03-12T04:40:22.887Z,-12.29
2024-03-12T04:41:22.902Z,-11.97
2024-03-12T04:42:23.016Z,-11.01
2024-03-12T04:43:23.115Z,-11.97
2024-03-12T04:44:23.199Z,-11.97
2024-03-12T04:45:23.292Z,-11.97
2024-03-12T04:46:23.388Z,-12.29
2024-03-12T04:47:23.500Z,-12.62
2024-03-12T04:48:23.604Z,-11.33
2024-03-12T04:49:23.639Z,-11.97
2024-03-12T04:50:24.176Z,-10.68
2024-03-12T04:51:23.834Z,-11.33
2024-03-12T04:52:23.908Z,-12.29
2024-03-12T04:53:24.037Z,-11.97
2024-03-12T04:54:24.115Z,-11.65
2024-03-12T04:55:24.171Z,-13.58
2024-03-12T04:56:24.283Z,-12.29
2024-03-12T04:57:24.324Z,-11.97
2024-03-12T04:58:24.439Z,-11.65
2024-03-12T04:59:24.510Z,-11.97
2024-03-12T05:00:24.597Z,-12.62
2024-03-12T05:01:24.684Z,-12.62
2024-03-12T05:02:24.750Z,-12.94
2024-03-12T05:03:24.849Z,-12.29
2024-03-12T05:04:24.959Z,-12.94
2024-03-12T05:05:25.005Z,-11.97
2024-03-12T05:06:25.129Z,-12.62
2024-03-12T05:07:25.129Z,-11.65
2024-03-12T05:08:25.243Z,-11.65
2024-03-12T05:09:25.419Z,-12.62
2024-03-12T05:10:25.572Z,-11.65
2024-03-12T05:11:25.574Z,-13.26
2024-03-12T05:12:25.665Z,-12.94
2024-03-12T05:13:25.708Z,-13.58
2024-03-12T05:14:25.850Z,-11.01
2024-03-12T05:15:25.977Z,-11.65
2024-03-12T05:16:26.125Z,-11.97
2024-03-12T05:17:26.078Z,-11.97
2024-03-12T05:18:26.319Z,-13.26
2024-03-12T05:19:26.332Z,-12.94
2024-03-12T05:20:26.458Z,-11.33
2024-03-12T05:21:28.048Z,-11.33
2024-03-12T05:22:26.546Z,-12.94
2024-03-12T05:23:26.650Z,-11.01
2024-03-12T05:24:26.761Z,-13.26
2024-03-12T05:25:26.823Z,-12.29
2024-03-12T05:26:26.873Z,-12.62
2024-03-12T05:27:26.989Z,-12.29
2024-03-12T05:28:27.037Z,-13.26
2024-03-12T05:29:27.165Z,-12.62
2024-03-12T05:30:27.323Z,-12.94
2024-03-12T05:31:27.304Z,-12.29
2024-03-12T05:32:27.414Z,-11.65
2024-03-12T05:33:27.473Z,-13.26
2024-03-12T05:34:27.589Z,-12.62
2024-03-12T05:35:27.641Z,-12.29
2024-03-12T05:36:27.789Z,-11.65
2024-03-12T05:37:28.176Z,-12.62
2024-03-12T05:38:27.895Z,-12.29
2024-03-12T05:39:28.068Z,-11.65
2024-03-12T05:40:28.050Z,-11.97
2024-03-12T05:41:28.130Z,-12.62
2024-03-12T05:42:28.316Z,-12.29
2024-03-12T05:43:28.337Z,-12.94
2024-03-12T05:44:28.438Z,-12.94
2024-03-12T05:45:28.525Z,-11.65
2024-03-12T05:46:28.656Z,-11.33
2024-03-12T05:47:28.642Z,-12.94
2024-03-12T05:48:28.765Z,-12.62
2024-03-12T05:49:28.827Z,-12.29
2024-03-12T05:50:29.232Z,-11.97
2024-03-12T05:51:29.014Z,-12.62
2024-03-12T05:52:29.149Z,-11.97
2024-03-12T05:53:29.172Z,-11.97
2024-03-12T05:54:29.235Z,-12.94
2024-03-12T05:55:29.327Z,-12.62
2024-03-12T05:56:29.405Z,-12.29
2024-03-12T05:57:29.587Z,-12.29
2024-03-12T05:58:29.608Z,-12.94
2024-03-12T05:59:29.661Z,-11.33
2024-03-12T06:00:29.824Z,-11.97
2024-03-12T06:01:30.310Z,-13.58
2024-03-12T06:02:29.918Z,-11.33
2024-03-12T06:03:30.030Z,-12.62
2024-03-12T06:04:30.145Z,-11.65
2024-03-12T06:05:30.223Z,-11.65
2024-03-12T06:06:30.339Z,-12.29
2024-03-12T06:07:30.365Z,-12.29
2024-03-12T06:08:30.479Z,-11.97
2024-03-12T06:09:30.625Z,-12.29
2024-03-12T06:10:30.750Z,-11.97
2024-03-12T06:11:30.732Z,-11.33
2024-03-12T06:12:30.836Z,-11.65
2024-03-12T06:13:30.893Z,-12.29
2024-03-12T06:14:31.000Z,-12.62
2024-03-12T06:15:31.124Z,-11.65
2024-03-12T06:16:31.160Z,-11.65
2024-03-12T06:17:31.283Z,-13.26
2024-03-12T06:18:31.401Z,-12.29
2024-03-12T06:19:31.393Z,-11.97
2024-03-12T06:20:31.487Z,-12.62
2024-03-12T06:21:31.608Z,-12.29
2024-03-12T06:22:31.675Z,-13.91
2024-03-12T06:23:31.786Z,-12.62
2024-03-12T06:24:31.862Z,-11.33
2024-03-12T06:25:31.926Z,-10.68
2024-03-12T06:26:32.006Z,-11.97
2024-03-12T06:27:32.158Z,-11.01
2024-03-12T06:28:32.299Z,-12.94
2024-03-12T06:29:32.313Z,-11.97
2024-03-12T06:30:32.346Z,-11.33
2024-03-12T06:31:32.427Z,-12.94
2024-03-12T06:32:32.758Z,-11.33
2024-03-12T06:33:32.644Z,-10.68
2024-03-12T06:34:32.699Z,-11.01
2024-03-12T06:35:32.807Z,-11.01
2024-03-12T06:36:32.835Z,-12.29
2024-03-12T06:37:32.888Z,-11.33
2024-03-12T06:38:32.953Z,-12.29
2024-03-12T06:39:33.177Z,-11.01
2024-03-12T06:40:33.160Z,-11.65
2024-03-12T06:41:33.278Z,-11.65
2024-03-12T06:42:33.377Z,-11.65
2024-03-12T06:43:33.410Z,-11.97
2024-03-12T06:44:33.597Z,-11.97
2024-03-12T06:45:33.661Z,-11.65
2024-03-12T06:46:33.663Z,-12.62
2024-03-12T06:47:33.767Z,-11.01
2024-03-12T06:48:33.963Z,-11.33
2024-03-12T06:49:33.941Z,-13.58
2024-03-12T06:50:34.635Z,-10.68
2024-03-12T06:51:34.188Z,-11.33
2024-03-12T06:52:34.229Z,-11.65
2024-03-12T06:53:34.337Z,-11.01
2024-03-12T06:54:34.444Z,-11.01
2024-03-12T06:55:34.578Z,-11.33
2024-03-12T06:56:34.617Z,-12.29
2024-03-12T06:57:34.729Z,-11.01
2024-03-12T06:58:34.798Z,-11.65
2024-03-12T06:59:34.881Z,-12.62
2024-03-12T07:00:35.009Z,-11.33
2024-03-12T07:01:35.106Z,-12.29
2024-03-12T07:02:35.210Z,-11.01
2024-03-12T07:03:35.299Z,-12.29
2024-03-12T07:04:35.362Z,-12.29
2024-03-12T07:05:35.446Z,-10.68
2024-03-12T07:06:35.560Z,-9.72
2024-03-12T07:07:35.579Z,-10.04
2024-03-12T07:08:35.679Z,-12.62
2024-03-12T07:09:35.824Z,-11.33
2024-03-12T07:10:35.839Z,-10.36
2024-03-12T07:11:35.950Z,-11.33
2024-03-12T07:12:36.039Z,-10.68
2024-03-12T07:13:36.085Z,-11.33
2024-03-12T07:14:36.182Z,-9.72
2024-03-12T07:15:36.302Z,-10.04
2024-03-12T07:16:36.313Z,-11.33
2024-03-12T07:17:36.425Z,-11.01
2024-03-12T07:18:37.161Z,-11.33
2024-03-12T07:19:36.584Z,-10.68
2024-03-12T07:20:36.824Z,-10.04
2024-03-12T07:21:36.814Z,-10.68
2024-03-12T07:22:36.886Z,-11.01
2024-03-12T07:23:36.960Z,-11.33
2024-03-12T07:24:37.105Z,-11.65
2024-03-12T07:25:37.181Z,-11.33
2024-03-12T07:26:37.256Z,-11.01
2024-03-12T07:27:37.384Z,-10.36
2024-03-12T07:28:37.434Z,-10.68
2024-03-12T07:29:37.530Z,-11.01
2024-03-12T07:30:37.690Z,-11.33
2024-03-12T07:31:37.729Z,-10.04
2024-03-12T07:32:38.731Z,-10.68
2024-03-12T07:33:37.922Z,-9.72
2024-03-12T07:34:37.964Z,-10.36
2024-03-12T07:35:38.083Z,-9.72
2024-03-12T07:36:38.195Z,-10.68
2024-03-12T07:37:38.254Z,-9.39
2024-03-12T07:38:38.675Z,-11.01
2024-03-12T07:39:38.490Z,-11.33
2024-03-12T07:40:38.479Z,-11.65
2024-03-12T07:41:38.591Z,-10.04
2024-03-12T07:42:38.673Z,-9.07
2024-03-12T07:43:38.774Z,-10.68
2024-03-12T07:44:38.818Z,-10.04
2024-03-12T07:45:38.974Z,-11.01
2024-03-12T07:46:39.011Z,-9.72
2024-03-12T07:47:39.121Z,-9.07
2024-03-12T07:48:39.229Z,-10.36
2024-03-12T07:49:39.256Z,-10.04
2024-03-12T07:50:39.371Z,-11.01
2024-03-12T07:51:39.445Z,-11.01
2024-03-12T07:52:39.489Z,-9.72
2024-03-12T07:53:39.599Z,-10.68
2024-03-12T07:54:39.710Z,-9.39
2024-03-12T07:55:39.735Z,-10.04
2024-03-12T07:56:39.832Z,-9.72
2024-03-12T07:57:39.951Z,-7.78
2024-03-12T07:58:39.985Z,-10.04
2024-03-12T07:59:40.164Z,-8.75
2024-03-12T08:00:40.250Z,-8.75
2024-03-12T08:01:40.285Z,-9.39
2024-03-12T08:02:40.360Z,-10.36
2024-03-12T08:03:40.884Z,-9.07
2024-03-12T08:04:40.540Z,-10.04
2024-03-12T08:05:40.618Z,-8.75
2024-03-12T08:06:40.754Z,-9.07
2024-03-12T08:07:40.798Z,-9.07
2024-03-12T08:08:40.860Z,-9.07
2024-03-12T08:09:41.017Z,-10.04
2024-03-12T08:10:41.010Z,-9.39
2024-03-12T08:11:41.130Z,-9.07
2024-03-12T08:12:41.630Z,-10.04
2024-03-12T08:13:41.239Z,-10.36
2024-03-12T08:14:41.410Z,-10.04
2024-03-12T08:15:41.445Z,-9.07
2024-03-12T08:16:41.583Z,-8.43
2024-03-12T08:17:44.724Z,-8.75
2024-03-12T08:18:41.846Z,-9.72
2024-03-12T08:19:41.917Z,-9.07
2024-03-12T08:20:41.896Z,-9.39
2024-03-12T08:21:42.067Z,-9.72
2024-03-12T08:22:42.073Z,-7.78
2024-03-12T08:23:42.153Z,-8.43
2024-03-12T08:24:42.280Z,-8.75
2024-03-12T08:25:54.697Z,-9.39
2024-03-12T08:26:43.413Z,-9.07
2024-03-12T08:27:42.560Z,-8.11
2024-03-12T08:28:42.605Z,-8.75
2024-03-12T08:29:42.677Z,-8.43
2024-03-12T08:30:42.829Z,-9.72
2024-03-12T08:31:47.662Z,-9.07
2024-03-12T08:32:44.688Z,-8.11
2024-03-12T08:33:43.249Z,-8.43
2024-03-12T08:34:43.468Z,-7.78
2024-03-12T08:35:43.203Z,-8.11
2024-03-12T08:36:43.326Z,-8.11
2024-03-12T08:37:43.398Z,-9.07
2024-03-12T08:38:43.477Z,-8.43
2024-03-12T08:39:43.667Z,-7.14
2024-03-12T08:40:43.674Z,-8.43
2024-03-12T08:41:43.756Z,-9.07
2024-03-12T08:42:50.622Z,-8.43
2024-03-12T08:43:44.910Z,-8.75
2024-03-12T08:44:43.981Z,-7.14
2024-03-12T08:45:44.066Z,-8.75
2024-03-12T08:46:44.163Z,-9.07
2024-03-12T08:47:44.248Z,-8.11
2024-03-12T08:48:44.281Z,-7.46
2024-03-12T08:49:44.411Z,-7.46
2024-03-12T08:50:44.460Z,-8.43
2024-03-12T08:51:44.626Z,-8.75
2024-03-12T08:52:44.674Z,-6.82
2024-03-12T08:53:44.776Z,-8.43
2024-03-12T08:54:44.849Z,-8.11
2024-03-12T08:55:44.914Z,-9.07
2024-03-12T08:56:45.035Z,-7.78
2024-03-12T08:57:45.165Z,-7.78
2024-03-12T08:58:45.247Z,-8.75
2024-03-12T08:59:45.297Z,-8.11
2024-03-12T09:00:45.389Z,-7.78
2024-03-12T09:01:45.651Z,-9.39
2024-03-12T09:02:45.530Z,-7.14
2024-03-12T09:03:47.062Z,-7.46
2024-03-12T09:04:45.842Z,-7.78
2024-03-12T09:05:45.817Z,-7.46
2024-03-12T09:06:46.033Z,-7.46
2024-03-12T09:07:46.081Z,-7.46
2024-03-12T09:08:46.160Z,-6.49
2024-03-12T09:09:47.561Z,-7.78
2024-03-12T09:10:46.384Z,-7.14
2024-03-12T09:11:46.361Z,-6.82
2024-03-12T09:12:46.512Z,-7.78
2024-03-12T09:13:46.543Z,-8.43
2024-03-12T09:14:46.658Z,-6.82
2024-03-12T09:15:46.770Z,-7.14
2024-03-12T09:16:46.820Z,-6.82
2024-03-12T09:17:46.935Z,-6.17
2024-03-12T09:18:47.071Z,-7.46
2024-03-12T09:19:47.119Z,-5.85
2024-03-12T09:20:47.157Z,-6.49
2024-03-12T09:21:47.294Z,-7.14
2024-03-12T09:22:47.341Z,-7.14
2024-03-12T09:23:56.381Z,-6.49
2024-03-12T09:24:48.613Z,-7.78
2024-03-12T09:25:47.651Z,-6.17
2024-03-12T09:26:47.787Z,-6.82
2024-03-12T09:27:47.864Z,-5.85
2024-03-12T09:28:48.014Z,-6.49
2024-03-12T09:29:48.029Z,-5.85
2024-03-12T09:30:48.100Z,-5.53
2024-03-12T09:31:48.198Z,-6.49
2024-03-12T09:32:48.279Z,-5.21
2024-03-12T09:33:48.408Z,-7.14
2024-03-12T09:34:48.444Z,-5.53
2024-03-12T09:35:48.564Z,-5.21
2024-03-12T09:36:48.684Z,-5.53
2024-03-12T09:37:48.706Z,-6.17
2024-03-12T09:38:48.786Z,-5.85
2024-03-12T09:39:48.979Z,-6.82
2024-03-12T09:40:49.019Z,-6.17
2024-03-12T09:41:49.021Z,-6.49
2024-03-12T09:42:49.142Z,-4.56
2024-03-12T09:43:49.150Z,-5.53
2024-03-12T09:44:49.250Z,-4.56
2024-03-12T09:45:49.377Z,-5.85
2024-03-12T09:46:49.430Z,-5.53
2024-03-12T09:47:49.612Z,-4.88
2024-03-12T09:48:49.678Z,-4.24
2024-03-12T09:49:49.703Z,-5.21
2024-03-12T09:50:49.807Z,-4.56
2024-03-12T09:51:49.897Z,-4.88
2024-03-12T09:52:50.079Z,-4.24
2024-03-12T09:53:50.042Z,-4.88
2024-03-12T09:54:50.239Z,-4.24
2024-03-12T09:55:50.211Z,-6.17
2024-03-12T09:56:50.303Z,-4.88
2024-03-12T09:57:50.720Z,-4.56
2024-03-12T09:58:50.485Z,-5.53
2024-03-12T09:59:50.564Z,-4.88
2024-03-12T10:00:50.704Z,-4.24
2024-03-12T10:01:50.743Z,-4.88
2024-03-12T10:02:50.930Z,-3.59
2024-03-12T10:03:50.946Z,-4.24
2024-03-12T10:04:50.990Z,-4.88
2024-03-12T10:05:51.069Z,-5.21
2024-03-12T10:06:51.170Z,-3.59
2024-03-12T10:07:51.229Z,-4.56
2024-03-12T10:08:51.290Z,-3.27
2024-03-12T10:09:51.377Z,-2.95
2024-03-12T10:10:51.472Z,-4.56
2024-03-12T10:11:51.506Z,-3.92
2024-03-12T10:12:51.593Z,-4.56
2024-03-12T10:13:51.696Z,-4.24
2024-03-12T10:14:51.766Z,-3.59
2024-03-12T10:15:52.059Z,-5.53
2024-03-12T10:16:51.908Z,-4.56
2024-03-12T10:17:52.015Z,-3.92
2024-03-12T10:18:52.147Z,-4.88
2024-03-12T10:19:52.142Z,-5.53
2024-03-12T10:20:52.257Z,-3.59
2024-03-12T10:21:52.335Z,-5.21
2024-03-12T10:22:52.373Z,-4.24
2024-03-12T10:23:52.463Z,-4.24
2024-03-12T10:24:52.551Z,-3.92
2024-03-12T10:25:52.649Z,-4.24
2024-03-12T10:26:52.737Z,-3.92
2024-03-12T10:28:03.610Z,-4.24
2024-03-12T10:28:53.924Z,-5.53
2024-03-12T10:29:52.963Z,-4.56
2024-03-12T10:30:53.073Z,-3.92
2024-03-12T10:31:53.144Z,-3.59
2024-03-12T10:32:53.229Z,-3.59
2024-03-12T10:33:53.362Z,-4.56
2024-03-12T10:34:53.406Z,-4.56
2024-03-12T10:35:53.503Z,-3.92
2024-03-12T10:36:53.563Z,-3.27
2024-03-12T10:37:53.612Z,-3.92
2024-03-12T10:38:53.674Z,-4.24
2024-03-12T10:39:53.819Z,-2.30
2024-03-12T10:40:53.893Z,-3.59
2024-03-12T10:41:53.954Z,-2.63
2024-03-12T10:42:54.139Z,-3.92
2024-03-12T10:43:54.144Z,-3.92
2024-03-12T10:44:54.207Z,-4.24
2024-03-12T10:45:54.295Z,-3.27
2024-03-12T10:46:54.422Z,-2.95
2024-03-12T10:47:54.454Z,-3.59
2024-03-12T10:48:54.514Z,-2.63
2024-03-12T10:49:54.536Z,-3.59
2024-03-12T10:50:54.602Z,-2.95
2024-03-12T10:51:54.714Z,-3.59
2024-03-12T10:52:54.777Z,-3.27
2024-03-12T10:53:55.014Z,-2.95
2024-03-12T10:55:05.370Z,-3.59
2024-03-12T10:55:56.188Z,-3.92
2024-03-12T10:56:55.157Z,-2.95
2024-03-12T10:57:55.332Z,-3.59
2024-03-12T10:58:55.322Z,-2.30
2024-03-12T10:59:55.416Z,-2.95
2024-03-12T11:00:55.544Z,-3.27
2024-03-12T11:01:55.581Z,-3.92
2024-03-12T11:02:55.667Z,-3.59
2024-03-12T11:03:55.810Z,-3.27
2024-03-12T11:04:55.903Z,-3.59
2024-03-12T11:05:55.931Z,-2.63
2024-03-12T11:06:56.079Z,-3.59
2024-03-12T11:07:56.108Z,-2.95
2024-03-12T11:08:56.210Z,-3.92
2024-03-12T11:09:56.358Z,-4.88
2024-03-12T11:10:56.446Z,-4.56
2024-03-12T11:11:56.509Z,-5.21
2024-03-12T11:12:56.629Z,-4.24
2024-03-12T11:13:56.636Z,-4.56
2024-03-12T11:14:56.741Z,-5.85
2024-03-12T11:15:56.816Z,-3.92
2024-03-12T11:16:56.844Z,-4.88
2024-03-12T11:17:56.965Z,-4.56
2024-03-12T11:18:57.045Z,-3.27
2024-03-12T11:19:58.735Z,-3.27
2024-03-12T11:20:57.192Z,-4.24
2024-03-12T11:21:57.282Z,-3.27
2024-03-12T11:22:57.308Z,-2.95
2024-03-12T11:23:57.574Z,-3.27
2024-03-12T11:24:57.525Z,-3.92
2024-03-12T11:25:57.571Z,-2.30
2024-03-12T11:26:57.687Z,-3.27
2024-03-12T11:27:57.817Z,-3.92
2024-03-12T11:28:57.859Z,-2.30
2024-03-12T11:29:57.933Z,-3.27
2024-03-12T11:30:58.057Z,-3.59
2024-03-12T11:31:58.126Z,-2.30
2024-03-12T11:32:58.214Z,-3.27
2024-03-12T11:33:58.242Z,-1.98
2024-03-12T11:34:58.342Z,-1.66
2024-03-12T11:35:58.421Z,-1.34
2024-03-12T11:36:58.570Z,-2.30
2024-03-12T11:37:58.612Z,-1.98
2024-03-12T11:38:58.673Z,-1.66
2024-03-12T11:39:58.776Z,-1.02
2024-03-12T11:40:58.867Z,-0.69
2024-03-12T11:41:58.922Z,-1.02
2024-03-12T11:42:59.071Z,-1.34
2024-03-12T11:43:59.680Z,-1.98
2024-03-12T11:44:59.208Z,-1.66
2024-03-12T11:45:59.401Z,-1.98
2024-03-12T11:46:59.396Z,-0.37
2024-03-12T11:47:59.536Z,-0.05
2024-03-12T11:48:59.607Z,-1.34
2024-03-12T11:50:02.428Z,-2.95
2024-03-12T11:50:59.766Z,-2.95
2024-03-12T11:51:59.931Z,-1.34
2024-03-12T11:52:59.981Z,-2.30
2024-03-12T11:54:00.013Z,-1.98
2024-03-12T11:55:00.166Z,-1.98
2024-03-12T11:56:01.421Z,0.60
2024-03-12T11:57:00.720Z,-0.69
2024-03-12T11:58:00.365Z,-1.02
2024-03-12T11:59:05.844Z,-1.34
2024-03-12T12:00:01.457Z,-1.02
2024-03-12T12:01:00.624Z,-0.37
2024-03-12T12:02:02.584Z,-0.69
2024-03-12T12:03:00.729Z,-0.05
2024-03-12T12:04:01.007Z,-1.34
2024-03-12T12:05:00.865Z,0.92
2024-03-12T12:06:00.930Z,0.92
2024-03-12T12:07:01.061Z,-0.69
2024-03-12T12:08:01.104Z,0.27
2024-03-12T12:09:01.438Z,0.92
2024-03-12T12:10:01.477Z,-0.05
2024-03-12T12:11:01.388Z,-1.34
2024-03-12T12:12:01.401Z,0.60
2024-03-12T12:13:01.547Z,0.60
2024-03-12T12:14:03.528Z,0.27
2024-03-12T12:15:01.720Z,0.27
2024-03-12T12:16:01.745Z,-1.02
2024-03-12T12:17:01.852Z,0.27
2024-03-12T12:18:01.990Z,-1.66
2024-03-12T12:19:02.053Z,-0.05
2024-03-12T12:20:02.070Z,0.60
2024-03-12T12:21:02.150Z,0.27
2024-03-12T12:22:02.288Z,0.27
2024-03-12T12:23:02.339Z,-1.02
2024-03-12T12:24:04.482Z,-0.69
2024-03-12T12:25:02.587Z,-0.37
2024-03-12T12:26:02.612Z,-0.69
2024-03-12T12:27:02.701Z,0.27
2024-03-12T12:28:02.801Z,-1.34
2024-03-12T12:29:02.866Z,-0.37
2024-03-12T12:30:04.633Z,0.60
2024-03-12T12:31:03.099Z,1.24
2024-03-12T12:32:03.127Z,-0.05
2024-03-12T12:33:03.171Z,-0.69
2024-03-12T12:34:03.300Z,-0.05
2024-03-12T12:35:03.314Z,-1.34
2024-03-12T12:36:03.384Z,-0.37
2024-03-12T12:37:04.247Z,-1.34
2024-03-12T12:38:03.589Z,-1.02
2024-03-12T12:39:04.307Z,-1.02